X  Blizu METAR Podaci o vazduhoplovstvu        EDDH Flugplatz Hohn Airport
Temperatura
64°F Temperatura
57°F Tačka Rose
77% Vlaga



Vetar
5 MPS
7 KM/S
2 M/S
4 Čvorovi



50°
SI
Trenutna situacija

Partly Cloudy Delimično oblačno
Vazdušni pritisak 1017 (hPa) - 30.03 (inHg)
Vidljivost 6 (Milje) - 10 (km)
Aerodrom
Aerodromski kod. EDDH

Lokacija: Flugplatz Hohn Airport
Udaljenost: 40 (mi)

Metar:
METAR EDDH 250950Z AUTO 05004KT 020V080 9999 SCT016 18/14 Q1017 NOSIG

Vreme: 25-05-2024 11:50 CEST